Terminal Aerodrome Forecast
Issued by NWS

Home | Current Version | Previous Version | Text Only | Print | Product List | Glossary On
Versions: 1 2 3 4 5 6 7 8 9 10 11 12 13 14 15 16
000
FTUS41 KBGM 291308 AAA
TAFRME
TAF AMD
KRME 291308Z 2913/3012 12007KT P6SM -RA OVC015
      TEMPO 2913/2915 3SM RA BR
     FM291800 13009KT P6SM -SHRA BKN020 OVC035
     FM300400 12005KT P6SM SCT040
     FM300700 VRB03KT 5SM BR BKN015=

USA.gov is the U.S. government's official web portal to all federal, state and local government web resources and services.